Time;durP1;ratioP1;P1;durP2;ratioP2;P2;SDS_P1;SDS_P2;PMS_P1;PMS_P2;Temp;Humidity;BMP_temperature;BMP_pressure;BME280_temperature;BME280_humidity;BME280_pressure;Samples;Min_cycle;Max_cycle;Signal;HPM_P1;HPM_P2
2022/01/18 00:01:49;;;;;;;64.68;7.60;;;6.90;99.90;;;;;;5110346;28;20040;-69
2022/01/18 00:04:15;;;;;;;60.03;8.23;;;7.30;99.90;;;;;;5110554;28;20039;-69
2022/01/18 00:06:44;;;;;;;69.22;7.97;;;7.40;99.90;;;;;;5109195;28;20066;-69
2022/01/18 00:09:10;;;;;;;62.85;8.63;;;8.10;99.90;;;;;;5091896;28;20062;-69
2022/01/18 00:11:45;;;;;;;62.50;8.48;;;;;;;;;;5110189;28;20060;-69
2022/01/18 00:14:24;;;;;;;56.67;8.30;;;7.30;99.90;;;;;;5117877;28;20039;-69
2022/01/18 00:17:04;;;;;;;68.80;9.43;;;7.20;99.90;;;;;;5130467;27;20119;-69
2022/01/18 00:19:33;;;;;;;57.50;8.10;;;;;;;;;;5130849;27;20394;-69
2022/01/18 00:24:27;;;;;;;49.22;7.82;;;7.20;99.90;;;;;;5129093;28;20047;-69
2022/01/18 00:26:53;;;;;;;62.83;9.05;;;7.10;99.90;;;;;;5131535;27;20043;-69
2022/01/18 00:29:22;;;;;;;59.45;8.75;;;;;;;;;;5117989;27;20506;-69
2022/01/18 00:39:09;;;;;;;66.68;8.27;;;7.00;99.90;;;;;;5113563;28;20043;-69
2022/01/18 00:41:36;;;;;;;62.78;8.80;;;6.40;99.90;;;;;;5113822;27;20043;-69
2022/01/18 00:44:02;;;;;;;49.85;8.73;;;7.20;99.90;;;;;;5113565;27;20043;-69
2022/01/18 00:46:28;;;;;;;64.78;9.50;;;7.10;99.90;;;;;;5112380;28;20096;-69
2022/01/18 00:48:57;;;;;;;58.15;8.10;;;;;;;;;;5113664;28;20487;-69
2022/01/18 00:51:22;;;;;;;64.00;8.45;;;7.30;99.90;;;;;;5112374;28;20079;-69
2022/01/18 00:53:48;;;;;;;54.95;8.27;;;6.90;99.90;;;;;;5113491;28;20082;-69
2022/01/18 00:58:45;;;;;;;61.80;8.80;;;7.30;99.90;;;;;;5112166;27;20047;-69
2022/01/18 01:01:11;;;;;;;63.75;8.20;;;7.30;99.90;;;;;;5112105;28;20055;-69
2022/01/18 01:03:37;;;;;;;63.03;8.23;;;7.20;99.90;;;;;;5112103;28;20046;-69
2022/01/18 01:06:05;;;;;;;58.08;7.85;;;7.50;99.90;;;;;;5112025;28;20043;-69
2022/01/18 01:08:31;;;;;;;60.63;8.75;;;7.30;99.90;;;;;;5112978;28;20043;-69
2022/01/18 01:10:57;;;;;;;56.70;7.53;;;7.10;99.90;;;;;;5112861;28;20058;-69
2022/01/18 01:13:24;;;;;;;61.67;8.38;;;7.50;99.90;;;;;;5112216;27;20055;-69
2022/01/18 01:16:06;;;;;;;58.03;7.88;;;;;;;;;;5133462;27;20047;-69
2022/01/18 01:34:48;;;;;;;52.35;7.10;;;;;;;;;;5112452;28;20054;-69
2022/01/18 01:45:25;;;;;;;52.95;7.43;;;7.40;99.90;;;;;;5124182;27;20097;-69
2022/01/18 01:47:52;;;;;;;57.17;6.97;;;;;;;;;;5112600;28;20054;-69
2022/01/18 01:50:20;;;;;;;55.65;7.47;;;7.30;99.90;;;;;;5110912;28;20499;-69
2022/01/18 01:52:47;;;;;;;39.13;6.40;;;7.10;99.90;;;;;;5111251;28;20058;-69
2022/01/18 01:55:14;;;;;;;52.78;7.30;;;7.40;99.90;;;;;;5110973;28;20047;-69
2022/01/18 01:57:40;;;;;;;51.33;7.35;;;7.30;99.90;;;;;;5111985;27;20036;-69
2022/01/18 02:00:15;;;;;;;48.72;7.40;;;7.20;99.90;;;;;;5113594;27;20066;-69
2022/01/18 02:02:41;;;;;;;59.10;8.07;;;7.20;99.90;;;;;;5112484;28;20039;-69
2022/01/18 02:05:09;;;;;;;37.97;6.65;;;8.70;99.90;;;;;;5111779;28;20044;-69
2022/01/18 02:07:36;;;;;;;45.78;7.05;;;6.80;99.90;;;;;;5112158;28;20046;-69
2022/01/18 02:10:04;;;;;;;48.78;7.55;;;7.10;99.90;;;;;;5110477;28;20039;-69
2022/01/18 02:12:31;;;;;;;46.15;6.65;;;;;;;;;;5110298;28;20051;-69
2022/01/18 02:14:59;;;;;;;46.50;6.47;;;;;;;;;;5120690;27;20118;-69
2022/01/18 02:22:59;;;;;;;44.90;6.78;;;6.90;99.90;;;;;;5132220;27;20555;-69
2022/01/18 02:25:26;;;;;;;45.83;7.57;;;7.10;99.90;;;;;;5130529;27;20043;-69
2022/01/18 02:27:52;;;;;;;49.97;7.13;;;7.30;99.90;;;;;;5129009;27;20118;-69
2022/01/18 02:30:18;;;;;;;48.30;6.90;;;7.00;99.90;;;;;;5130621;27;20443;-69
2022/01/18 02:32:43;;;;;;;59.28;8.65;;;6.90;99.90;;;;;;5113723;27;20399;-69
2022/01/18 02:35:09;;;;;;;45.85;7.20;;;7.10;99.90;;;;;;5130399;27;20402;-69
2022/01/18 02:37:35;;;;;;;54.70;7.57;;;6.70;99.90;;;;;;5130191;27;20483;-69
2022/01/18 02:40:02;;;;;;;51.05;7.40;;;7.10;99.90;;;;;;5132064;27;20050;-69
2022/01/18 02:42:40;;;;;;;49.08;8.13;;;;;;;;;;5130522;27;20138;-69
2022/01/18 02:45:08;;;;;;;42.60;7.00;;;6.90;99.90;;;;;;5131803;27;20047;-69
2022/01/18 02:47:34;;;;;;;47.25;7.25;;;;;;;;;;5130367;27;20050;-69
2022/01/18 02:49:59;;;;;;;57.95;8.55;;;7.10;99.90;;;;;;5129420;27;20035;-69
2022/01/18 02:52:29;;;;;;;51.15;8.43;;;;;;;;;;5112018;28;20043;-69
2022/01/18 02:54:56;;;;;;;45.88;7.47;;;6.90;99.90;;;;;;5110970;28;20047;-69
2022/01/18 02:57:26;;;;;;;54.72;8.43;;;6.70;99.90;;;;;;5109550;28;20047;-69
2022/01/18 03:00:08;;;;;;;54.38;8.80;;;6.70;99.90;;;;;;5111015;28;20114;-69
2022/01/18 03:05:18;;;;;;;51.70;8.65;;;6.60;99.90;;;;;;5112293;27;20058;-69
2022/01/18 03:07:44;;;;;;;46.40;7.90;;;6.80;99.90;;;;;;5130080;27;20126;-69
2022/01/18 03:10:13;;;;;;;50.00;7.97;;;6.60;99.90;;;;;;5130025;27;20602;-69
2022/01/18 03:12:39;;;;;;;48.05;8.23;;;;;;;;;;5131332;27;20055;-69
2022/01/18 03:15:06;;;;;;;50.15;9.18;;;6.50;99.90;;;;;;5129900;27;20039;-69
2022/01/18 03:17:32;;;;;;;64.10;9.73;;;6.60;99.90;;;;;;5130987;27;20043;-69
2022/01/18 03:19:57;;;;;;;52.83;9.50;;;6.50;99.90;;;;;;5129855;27;20059;-69
2022/01/18 03:22:24;;;;;;;55.80;9.23;;;7.30;99.90;;;;;;5129947;28;20047;-69
2022/01/18 03:30:05;;;;;;;53.50;9.55;;;6.50;99.90;;;;;;5131329;28;20104;-69
2022/01/18 03:32:31;;;;;;;66.75;10.55;;;;;;;;;;5131025;27;20041;-69
2022/01/18 03:34:57;;;;;;;47.22;9.75;;;6.50;99.90;;;;;;5125096;28;20046;-69
2022/01/18 03:37:22;;;;;;;61.70;10.23;;;7.10;99.90;;;;;;5110670;28;20043;-69
2022/01/18 03:39:48;;;;;;;69.10;10.77;;;6.80;99.90;;;;;;5130903;28;20062;-69
2022/01/18 03:44:45;;;;;;;61.25;10.73;;;6.70;99.90;;;;;;5131577;27;20054;-69
2022/01/18 03:47:14;;;;;;;52.65;9.88;;;6.30;99.90;;;;;;5129774;28;20051;-69
2022/01/18 03:49:39;;;;;;;77.63;11.18;;;6.70;99.90;;;;;;5131118;27;20364;-69
2022/01/18 03:52:05;;;;;;;62.10;10.55;;;;;;;;;;5130949;28;20042;-69
2022/01/18 03:54:31;;;;;;;61.15;10.55;;;;;;;;;;5089924;28;20067;-69
2022/01/18 03:56:57;;;;;;;59.03;10.35;;;6.30;99.90;;;;;;5089828;28;20483;-69
2022/01/18 03:59:23;;;;;;;61.40;11.05;;;;;;;;;;5089909;28;20055;-69
2022/01/18 04:01:49;;;;;;;64.57;10.32;;;;;;;;;;5092601;28;20104;-69
2022/01/18 04:04:19;;;;;;;59.35;10.40;;;6.60;99.90;;;;;;5094144;28;20467;-69
2022/01/18 04:06:45;;;;;;;49.50;10.13;;;;;;;;;;5092633;28;20078;-69
2022/01/18 04:09:11;;;;;;;47.22;8.52;;;;;;;;;;5132999;27;20514;-69
2022/01/18 04:11:36;;;;;;;56.63;9.40;;;6.40;99.90;;;;;;5134681;27;20055;-69
2022/01/18 04:14:04;;;;;;;46.70;8.82;;;6.60;99.90;;;;;;5133297;27;20043;-69
2022/01/18 04:16:30;;;;;;;50.72;8.95;;;;;;;;;;5134674;27;20047;-69
2022/01/18 04:19:20;;;;;;;51.60;9.20;;;6.70;99.90;;;;;;5134587;27;20049;-69
2022/01/18 04:27:10;;;;;;;43.63;8.38;;;;;;;;;;5134885;27;20128;-69
2022/01/18 04:29:36;;;;;;;44.72;7.97;;;6.70;99.90;;;;;;5133372;27;20043;-69
2022/01/18 04:32:02;;;;;;;48.03;9.00;;;6.20;99.90;;;;;;5133156;27;20072;-69
2022/01/18 04:34:27;;;;;;;42.80;8.60;;;6.30;99.90;;;;;;5134660;27;20043;-69
2022/01/18 04:36:55;;;;;;;46.33;8.65;;;6.20;99.90;;;;;;5128118;27;20048;-69
2022/01/18 04:39:21;;;;;;;47.47;8.80;;;;;;;;;;5113924;28;20448;-69
2022/01/18 04:41:47;;;;;;;43.33;8.57;;;6.50;99.90;;;;;;5112634;28;20395;-69
2022/01/18 04:48:24;;;;;;;50.28;8.75;;;6.50;99.90;;;;;;5112142;28;20063;-69
2022/01/18 04:49:46;;;;;;;51.42;8.77;;;6.30;99.90;;;;;;5113675;28;19916;-69
2022/01/18 04:52:13;;;;;;;43.38;8.30;;;6.50;99.90;;;;;;5113677;28;20093;-69
2022/01/18 04:54:42;;;;;;;48.92;8.27;;;;;;;;;;5113657;28;20119;-69
2022/01/18 04:59:37;;;;;;;58.00;8.50;;;6.60;99.90;;;;;;5112075;28;20468;-69
2022/01/18 05:02:03;;;;;;;38.92;7.35;;;6.60;99.90;;;;;;5112333;28;20089;-69
2022/01/18 05:04:30;;;;;;;42.13;7.32;;;6.60;99.90;;;;;;5110081;28;20076;-69
2022/01/18 05:07:01;;;;;;;42.92;7.45;;;;;;;;;;5122700;27;20092;-69
2022/01/18 05:09:27;;;;;;;43.70;7.65;;;;;;;;;;5133499;27;20118;-69
2022/01/18 05:12:11;;;;;;;41.50;8.05;;;6.80;99.90;;;;;;5131950;27;20388;-69
2022/01/18 05:14:38;;;;;;;48.45;7.13;;;6.70;99.90;;;;;;5133965;27;20043;-69
2022/01/18 05:17:13;;;;;;;43.55;7.70;;;6.50;99.90;;;;;;5133943;27;20050;-69
2022/01/18 05:19:45;;;;;;;39.40;7.05;;;6.50;99.90;;;;;;5132702;27;20153;-69
2022/01/18 05:25:00;;;;;;;43.47;7.13;;;6.30;99.90;;;;;;5092547;28;20040;-69
2022/01/18 05:27:26;;;;;;;42.58;6.43;;;6.20;99.90;;;;;;5091367;28;20039;-69
2022/01/18 05:29:52;;;;;;;38.10;6.80;;;;;;;;;;5091460;28;20039;-69
2022/01/18 05:32:18;;;;;;;42.67;7.95;;;;;;;;;;5092106;28;20062;-69
2022/01/18 05:34:48;;;;;;;45.50;7.50;;;;;;;;;;5090993;28;20052;-69
2022/01/18 05:37:14;;;;;;;40.75;6.45;;;;;;;;;;5114368;27;20059;-69
2022/01/18 05:39:40;;;;;;;37.80;7.13;;;6.90;99.90;;;;;;5099089;27;20403;-69
2022/01/18 05:42:06;;;;;;;40.75;6.75;;;6.40;99.90;;;;;;5120518;27;20054;-69
2022/01/18 05:44:31;;;;;;;43.85;7.57;;;6.60;99.90;;;;;;5119092;27;20047;-69
2022/01/18 05:46:57;;;;;;;34.13;5.85;;;6.90;99.90;;;;;;5117839;27;20058;-69
2022/01/18 05:49:23;;;;;;;39.13;6.93;;;;;;;;;;5123628;27;20046;-69
2022/01/18 05:51:49;;;;;;;34.40;6.68;;;6.90;99.90;;;;;;5124113;27;20107;-69
2022/01/18 05:54:14;;;;;;;37.28;7.57;;;6.60;99.90;;;;;;5110498;28;20122;-69
2022/01/18 05:56:40;;;;;;;30.45;6.53;;;;;;;;;;5110594;28;20497;-69
2022/01/18 05:59:13;;;;;;;39.60;7.30;;;6.40;99.90;;;;;;5112432;28;20399;-69
2022/01/18 06:01:47;;;;;;;30.92;7.22;;;6.90;99.90;;;;;;5112421;28;20483;-69
2022/01/18 06:06:49;;;;;;;36.42;7.93;;;6.10;99.90;;;;;;5111753;28;20046;-69
2022/01/18 06:06:58;;;;;;;45.63;8.70;;;;;;;;;;5120140;27;20055;-69
2022/01/18 06:09:25;;;;;;;38.70;8.20;;;6.30;99.90;;;;;;5130677;27;20053;-69
2022/01/18 06:11:51;;;;;;;38.03;7.60;;;5.60;99.90;;;;;;5130840;27;20053;-69
2022/01/18 06:14:17;;;;;;;39.25;7.63;;;6.10;99.90;;;;;;5130720;27;20043;-69
2022/01/18 06:16:43;;;;;;;37.50;7.35;;;;;;;;;;5132094;27;20055;-69
2022/01/18 06:19:09;;;;;;;39.70;7.70;;;6.50;99.90;;;;;;5132140;27;20047;-69
2022/01/18 06:21:35;;;;;;;38.80;7.35;;;;;;;;;;5130985;27;20396;-69
2022/01/18 06:24:01;;;;;;;38.50;7.82;;;;;;;;;;5131092;27;20038;-69
2022/01/18 06:26:27;;;;;;;32.53;8.00;;;6.40;99.90;;;;;;5131916;27;20046;-69
2022/01/18 06:28:55;;;;;;;31.75;7.03;;;;;;;;;;5130470;27;20051;-69
2022/01/18 06:31:21;;;;;;;34.13;7.53;;;6.60;99.90;;;;;;5130419;27;20137;-69
2022/01/18 06:33:47;;;;;;;40.22;7.43;;;;;;;;;;5130780;27;20118;-69
2022/01/18 06:36:13;;;;;;;37.08;7.38;;;;;;;;;;5131315;27;20081;-69
2022/01/18 06:38:39;;;;;;;34.70;7.00;;;6.70;99.90;;;;;;5130807;27;20055;-69
2022/01/18 06:41:05;;;;;;;43.90;7.47;;;6.60;99.90;;;;;;5113537;27;20039;-69
2022/01/18 06:43:31;;;;;;;36.63;6.88;;;6.30;99.90;;;;;;5130435;27;20050;-69
2022/01/18 06:45:57;;;;;;;39.28;7.22;;;;;;;;;;5131608;27;20050;-69
2022/01/18 06:48:23;;;;;;;31.40;6.45;;;6.40;99.90;;;;;;5130741;27;20466;-69
2022/01/18 06:50:49;;;;;;;29.95;6.90;;;6.50;99.90;;;;;;5131304;27;20070;-69
2022/01/18 06:53:16;;;;;;;38.20;6.30;;;;;;;;;;5105783;27;20043;-71
2022/01/18 06:55:42;;;;;;;31.25;5.25;;;;;;;;;;5090519;28;20047;-71
2022/01/18 06:58:07;;;;;;;31.00;6.00;;;6.10;99.90;;;;;;5089218;28;20040;-71
2022/01/18 07:00:33;;;;;;;29.83;5.50;;;6.70;99.90;;;;;;5089807;28;20391;-69
2022/01/18 07:02:59;;;;;;;33.03;5.20;;;;;;;;;;5089581;28;20055;-69
2022/01/18 07:05:25;;;;;;;24.77;5.38;;;;;;;;;;5089443;28;20464;-69
2022/01/18 07:07:51;;;;;;;27.63;5.82;;;6.30;99.90;;;;;;5112517;27;20047;-69
2022/01/18 07:10:17;;;;;;;30.67;5.68;;;6.20;99.90;;;;;;5131213;27;20505;-69
2022/01/18 07:12:44;;;;;;;38.42;6.07;;;6.00;99.90;;;;;;5130249;27;20043;-69
2022/01/18 07:15:10;;;;;;;34.47;6.07;;;;;;;;;;5131177;27;20495;-69
2022/01/18 07:17:38;;;;;;;27.25;5.70;;;6.50;99.90;;;;;;5130285;27;20125;-70
2022/01/18 07:20:05;;;;;;;37.08;6.20;;;6.40;99.90;;;;;;5131164;27;20056;-69
2022/01/18 07:22:31;;;;;;;35.38;6.63;;;6.80;99.90;;;;;;5109836;28;20047;-69
2022/01/18 07:24:59;;;;;;;30.42;6.63;;;6.30;99.90;;;;;;5110757;28;20047;-69
2022/01/18 07:27:29;;;;;;;30.58;6.40;;;6.20;99.90;;;;;;5109428;28;20066;-69
2022/01/18 07:29:54;;;;;;;35.17;6.53;;;6.10;99.90;;;;;;5110747;28;20035;-68
2022/01/18 07:32:21;;;;;;;30.85;5.68;;;;;;;;;;5110913;28;20046;-68
2022/01/18 07:34:53;;;;;;;35.47;6.40;;;;;;;;;;5110797;28;20055;-68
2022/01/18 07:37:22;;;;;;;34.97;6.50;;;6.40;99.90;;;;;;5116558;27;20053;-68
2022/01/18 07:39:50;;;;;;;30.00;6.63;;;6.20;99.90;;;;;;5113597;28;20040;-68
2022/01/18 07:42:16;;;;;;;35.08;6.95;;;6.30;99.90;;;;;;5113643;28;20055;-68
2022/01/18 07:44:42;;;;;;;28.73;6.82;;;6.20;99.90;;;;;;5113147;28;20118;-68
2022/01/18 07:47:07;;;;;;;36.55;7.10;;;6.00;99.90;;;;;;5114720;28;20495;-68
2022/01/18 07:49:33;;;;;;;29.83;7.43;;;6.30;99.90;;;;;;5113374;28;20088;-68
2022/01/18 07:51:59;;;;;;;30.25;6.57;;;;;;;;;;5128878;27;20043;-68
2022/01/18 07:54:25;;;;;;;37.22;6.82;;;;;;;;;;5135466;27;20055;-69
2022/01/18 07:56:53;;;;;;;32.85;7.15;;;6.70;99.90;;;;;;5134699;27;20449;-68
2022/01/18 07:59:18;;;;;;;39.85;6.95;;;6.10;99.90;;;;;;5135277;27;20043;-68
2022/01/18 08:01:44;;;;;;;34.85;7.35;;;6.40;99.90;;;;;;5133729;27;20046;-68
2022/01/18 08:04:10;;;;;;;49.10;8.45;;;6.30;99.90;;;;;;5135651;27;20050;-68
2022/01/18 08:06:36;;;;;;;41.28;8.43;;;6.30;99.90;;;;;;5134247;27;20444;-68
2022/01/18 08:09:02;;;;;;;41.78;8.40;;;;;;;;;;5133547;27;20043;-68
2022/01/18 08:11:27;;;;;;;36.40;8.70;;;6.10;99.90;;;;;;5125358;27;20056;-68
2022/01/18 08:13:53;;;;;;;36.42;8.02;;;6.20;99.90;;;;;;5112905;28;20517;-68
2022/01/18 08:18:56;;;;;;;34.90;8.27;;;5.90;99.90;;;;;;5113120;28;20490;-68
2022/01/18 08:21:24;;;;;;;36.38;8.50;;;6.10;99.90;;;;;;5114205;28;20048;-68
2022/01/18 08:23:52;;;;;;;31.58;7.90;;;6.40;99.90;;;;;;5112739;28;20483;-67
2022/01/18 08:26:18;;;;;;;36.25;8.60;;;6.50;99.90;;;;;;5114041;27;20467;-69
2022/01/18 08:28:44;;;;;;;37.67;8.18;;;;;;;;;;5112616;28;20224;-69
2022/01/18 08:31:13;;;;;;;30.92;7.80;;;6.20;99.90;;;;;;5114004;28;20111;-69
2022/01/18 08:33:39;;;;;;;29.50;7.82;;;;;;;;;;5113713;28;20550;-69
2022/01/18 08:36:06;;;;;;;28.02;7.75;;;6.70;99.90;;;;;;5112085;28;20059;-69
2022/01/18 08:38:34;;;;;;;31.60;8.05;;;6.30;99.90;;;;;;5095006;28;20048;-69
2022/01/18 08:41:03;;;;;;;32.50;8.02;;;6.30;99.90;;;;;;5123341;27;20122;-69
2022/01/18 08:43:31;;;;;;;35.75;8.65;;;6.20;99.90;;;;;;5133073;27;20491;-69
2022/01/18 08:46:00;;;;;;;28.50;8.10;;;6.30;99.90;;;;;;5132922;27;20062;-69
2022/01/18 08:48:27;;;;;;;30.05;7.30;;;;;;;;;;5131792;27;20050;-69
2022/01/18 08:50:53;;;;;;;29.90;7.85;;;6.30;99.90;;;;;;5132485;27;20494;-69
2022/01/18 08:53:19;;;;;;;26.50;7.75;;;6.00;99.90;;;;;;5132652;27;20501;-69
2022/01/18 08:55:44;;;;;;;33.15;8.20;;;6.10;99.90;;;;;;5133677;27;20043;-69
2022/01/18 08:58:11;;;;;;;33.38;8.93;;;;;;;;;;5132981;27;20066;-69
2022/01/18 09:00:37;;;;;;;31.25;8.68;;;6.70;99.90;;;;;;5134143;27;20031;-69
2022/01/18 09:03:03;;;;;;;35.30;8.88;;;6.20;99.90;;;;;;5133928;27;20141;-69
2022/01/18 09:05:29;;;;;;;29.67;9.40;;;;;;;;;;5133700;27;20079;-69
2022/01/18 09:07:56;;;;;;;32.85;10.00;;;6.40;99.90;;;;;;5132589;27;20359;-68
2022/01/18 09:10:25;;;;;;;29.45;9.45;;;6.10;99.90;;;;;;5124255;27;20055;-69
2022/01/18 09:12:51;;;;;;;38.15;10.32;;;6.40;99.90;;;;;;5111804;28;20116;-69
2022/01/18 09:15:17;;;;;;;31.17;9.73;;;6.20;99.90;;;;;;5111606;28;20083;-69
2022/01/18 09:17:43;;;;;;;32.78;10.40;;;;;;;;;;5111351;28;20083;-69
2022/01/18 09:20:12;;;;;;;40.63;11.70;;;6.20;99.90;;;;;;5111239;28;20088;-69
2022/01/18 09:22:40;;;;;;;43.97;11.63;;;6.20;99.90;;;;;;5113081;28;20042;-69
2022/01/18 09:25:10;;;;;;;34.83;11.45;;;6.10;99.90;;;;;;5121481;27;20043;-69
2022/01/18 09:27:36;;;;;;;34.55;11.90;;;6.40;99.90;;;;;;5131802;27;20099;-68
2022/01/18 09:30:04;;;;;;;36.58;11.82;;;6.50;99.90;;;;;;5133841;27;20439;-69
2022/01/18 09:32:30;;;;;;;35.83;11.07;;;5.90;99.90;;;;;;5131790;27;20475;-69
2022/01/18 09:34:57;;;;;;;32.05;11.45;;;6.40;99.90;;;;;;5133206;27;20079;-69
2022/01/18 09:37:23;;;;;;;36.47;11.40;;;6.60;99.90;;;;;;5131774;27;20050;-69
2022/01/18 09:39:49;;;;;;;34.65;10.85;;;;;;;;;;5132442;27;20498;-69
2022/01/18 09:42:17;;;;;;;31.23;11.63;;;6.20;99.90;;;;;;5131587;27;20043;-69
2022/01/18 09:44:46;;;;;;;37.30;11.73;;;6.50;99.90;;;;;;5132719;27;20043;-69
2022/01/18 09:47:12;;;;;;;34.92;11.85;;;6.60;99.90;;;;;;5132725;27;20089;-69
2022/01/18 09:49:40;;;;;;;42.25;12.30;;;6.50;99.90;;;;;;5131329;27;20071;-69
2022/01/18 09:52:06;;;;;;;37.95;11.30;;;6.40;99.90;;;;;;5131286;27;20080;-69
2022/01/18 09:54:32;;;;;;;39.72;11.57;;;6.60;99.90;;;;;;5131013;27;20104;-69
2022/01/18 09:57:00;;;;;;;34.03;10.85;;;;;;;;;;5132595;27;20073;-69
2022/01/18 09:59:26;;;;;;;27.08;10.32;;;6.40;99.90;;;;;;5130698;27;20046;-69
2022/01/18 10:01:52;;;;;;;29.48;9.95;;;6.80;99.90;;;;;;5132217;27;20039;-69
2022/01/18 10:04:19;;;;;;;34.47;10.63;;;6.60;99.90;;;;;;5111379;27;20101;-69
2022/01/18 10:06:52;;;;;;;29.63;10.45;;;6.60;99.90;;;;;;5123133;27;20069;-69
2022/01/18 10:09:20;;;;;;;30.10;11.52;;;7.00;99.90;;;;;;5132473;27;20074;-69
2022/01/18 10:12:10;;;;;;;34.50;13.52;;;6.40;99.90;;;;;;5130830;27;20111;-69
2022/01/18 10:14:56;;;;;;;37.38;14.00;;;7.00;99.90;;;;;;5132262;27;20476;-69
2022/01/18 10:17:37;;;;;;;36.53;15.73;;;7.00;99.90;;;;;;5113624;27;20050;-69
2022/01/18 10:20:09;;;;;;;43.67;20.50;;;7.00;99.90;;;;;;5130722;27;20047;-69
2022/01/18 10:22:48;;;;;;;44.00;20.92;;;9.00;99.90;;;;;;5131933;27;20095;-69
2022/01/18 10:25:28;;;;;;;45.72;21.02;;;6.90;99.90;;;;;;5131963;27;20163;-69
2022/01/18 10:27:55;;;;;;;40.83;19.77;;;6.70;99.90;;;;;;5132033;27;20043;-69
2022/01/18 10:30:37;;;;;;;37.80;18.45;;;6.50;99.90;;;;;;5113981;27;20534;-69
2022/01/18 10:33:12;;;;;;;40.22;16.15;;;6.80;99.90;;;;;;5111401;28;20523;-69
2022/01/18 10:36:09;;;;;;;33.83;16.00;;;7.20;99.90;;;;;;5093189;28;20131;-69
2022/01/18 10:38:36;;;;;;;30.13;13.75;;;7.00;99.90;;;;;;5092765;28;20082;-69
2022/01/18 10:41:28;;;;;;;27.88;11.52;;;7.60;99.90;;;;;;5111398;28;20039;-69
2022/01/18 10:44:05;;;;;;;23.13;10.32;;;7.10;99.90;;;;;;5116982;27;20115;-69
2022/01/18 10:46:39;;;;;;;30.60;10.05;;;7.20;99.90;;;;;;5130823;27;20154;-69
2022/01/18 10:49:06;;;;;;;23.13;10.00;;;7.10;99.90;;;;;;5132358;27;20047;-69
2022/01/18 10:51:35;;;;;;;28.48;10.82;;;7.70;99.90;;;;;;5132087;27;20104;-69
2022/01/18 10:54:04;;;;;;;24.00;10.15;;;7.30;99.90;;;;;;5130219;27;20513;-69
2022/01/18 10:56:41;;;;;;;22.38;10.00;;;7.50;99.90;;;;;;5130581;27;20122;-70
2022/01/18 10:59:18;;;;;;;19.65;9.77;;;6.90;99.90;;;;;;5121048;27;20048;-72
2022/01/18 11:01:44;;;;;;;22.33;10.63;;;;;;;;;;5111214;28;20487;-72
2022/01/18 11:04:14;;;;;;;20.33;10.23;;;7.40;99.90;;;;;;5109734;28;20096;-72
2022/01/18 11:06:43;;;;;;;20.80;10.02;;;7.20;99.90;;;;;;5111187;28;20040;-72
2022/01/18 11:09:13;;;;;;;22.95;10.35;;;7.40;99.90;;;;;;5109645;28;20047;-72
2022/01/18 11:11:47;;;;;;;26.90;10.80;;;7.40;99.90;;;;;;5108769;28;20546;-69
2022/01/18 11:14:17;;;;;;;24.63;10.13;;;7.60;99.90;;;;;;5124304;27;20093;-69
2022/01/18 11:16:44;;;;;;;21.08;11.00;;;7.60;99.90;;;;;;5130077;27;20043;-69
2022/01/18 11:21:48;;;;;;;21.55;10.52;;;7.10;99.90;;;;;;5130225;27;20076;-69
2022/01/18 11:24:18;;;;;;;19.73;9.32;;;7.80;99.90;;;;;;5129993;27;20038;-70
2022/01/18 11:26:45;;;;;;;18.48;8.82;;;7.40;99.90;;;;;;5113456;28;20447;-69
2022/01/18 11:29:16;;;;;;;20.92;9.18;;;7.40;99.90;;;;;;5114111;27;20144;-69
2022/01/18 11:31:47;;;;;;;17.88;8.80;;;7.40;99.90;;;;;;5110936;28;20479;-69
2022/01/18 11:34:34;;;;;;;20.83;8.93;;;7.50;99.90;;;;;;5109954;28;20399;-69
2022/01/18 11:37:25;;;;;;;17.60;8.32;;;7.30;99.90;;;;;;5109616;28;20066;-69
2022/01/18 11:40:10;;;;;;;19.08;8.45;;;7.50;99.90;;;;;;5114916;28;20045;-69
2022/01/18 11:42:50;;;;;;;16.95;7.45;;;7.40;99.90;;;;;;5130769;28;20367;-70
2022/01/18 11:45:25;;;;;;;17.20;7.30;;;7.40;99.90;;;;;;5130123;28;20498;-69
2022/01/18 11:48:12;;;;;;;20.20;7.80;;;7.50;99.90;;;;;;5129992;28;20059;-69
2022/01/18 11:50:44;;;;;;;16.40;7.15;;;7.10;99.90;;;;;;5112840;28;20047;-69
2022/01/18 11:56:37;;;;;;;21.50;8.00;;;7.50;99.90;;;;;;5116237;27;20051;-69
2022/01/18 11:59:19;;;;;;;18.70;6.97;;;8.10;99.90;;;;;;5129572;27;20398;-69
2022/01/18 12:01:48;;;;;;;15.73;6.50;;;7.60;99.90;;;;;;5129805;28;20371;-69
2022/01/18 12:04:15;;;;;;;12.20;4.63;;;;;;;;;;5129457;28;20043;-70
2022/01/18 12:06:46;;;;;;;13.07;4.80;;;7.50;99.90;;;;;;5129232;28;20495;-69
2022/01/18 12:09:38;;;;;;;13.43;4.07;;;7.60;99.90;;;;;;5125437;27;20126;-70
2022/01/18 12:12:05;;;;;;;10.88;4.22;;;7.50;99.90;;;;;;5116174;28;20065;-69
2022/01/18 12:14:34;;;;;;;17.73;4.25;;;8.60;99.90;;;;;;5129928;28;20398;-69
2022/01/18 12:17:16;;;;;;;13.13;3.28;;;7.70;99.90;;;;;;5129646;27;20063;-69
2022/01/18 12:19:46;;;;;;;16.42;3.90;;;7.40;99.90;;;;;;5129710;27;20049;-70
2022/01/18 12:22:12;;;;;;;14.45;3.97;;;;;;;;;;5131760;27;20047;-70
2022/01/18 12:24:43;;;;;;;13.60;4.35;;;7.30;99.90;;;;;;5116277;27;20130;-69
2022/01/18 12:27:29;;;;;;;15.00;4.40;;;7.50;99.90;;;;;;5127170;27;20440;-70
2022/01/18 12:33:19;;;;;;;22.70;4.57;;;7.20;99.90;;;;;;5112807;28;20527;-70
2022/01/18 12:35:45;;;;;;;16.92;4.97;;;7.70;99.90;;;;;;5112873;28;20039;-69
2022/01/18 12:38:22;;;;;;;17.08;4.88;;;7.30;99.90;;;;;;5130185;27;20050;-70
2022/01/18 12:40:48;;;;;;;19.08;5.03;;;7.10;99.90;;;;;;5129709;27;20039;-70
2022/01/18 12:45:42;;;;;;;14.98;4.40;;;7.40;99.90;;;;;;5133227;27;20111;-70
2022/01/18 12:48:13;;;;;;;17.38;5.13;;;7.70;99.90;;;;;;5132910;27;20046;-70
2022/01/18 12:50:52;;;;;;;17.88;4.28;;;7.30;99.90;;;;;;5132610;27;20047;-70
2022/01/18 12:53:25;;;;;;;22.23;4.25;;;7.50;99.90;;;;;;5132743;27;20107;-69
2022/01/18 12:55:54;;;;;;;15.57;3.80;;;;;;;;;;5096204;28;20126;-70
2022/01/18 12:58:26;;;;;;;12.82;3.83;;;7.70;99.90;;;;;;5112259;28;20036;-70
2022/01/18 13:01:01;;;;;;;16.00;3.60;;;7.50;99.90;;;;;;5111853;28;20514;-70
2022/01/18 13:03:41;;;;;;;15.25;3.75;;;7.60;99.90;;;;;;5112026;28;20048;-70
2022/01/18 13:06:18;;;;;;;9.73;3.40;;;7.20;99.90;;;;;;5112343;28;20116;-70
2022/01/18 13:08:48;;;;;;;12.38;3.67;;;7.40;99.90;;;;;;5098523;27;20047;-70
2022/01/18 13:11:23;;;;;;;13.55;3.95;;;7.50;99.90;;;;;;5131703;27;20186;-69
2022/01/18 13:13:56;;;;;;;12.68;4.13;;;7.00;99.90;;;;;;5131931;27;20054;-70
2022/01/18 13:24:50;;;;;;;19.33;4.72;;;6.90;99.90;;;;;;5131900;27;20074;-70
2022/01/18 13:27:49;;;;;;;14.02;5.13;;;7.00;99.90;;;;;;5131713;27;20577;-69
2022/01/18 13:30:24;;;;;;;12.35;4.85;;;7.40;99.90;;;;;;5131857;27;20490;-70
2022/01/18 13:32:51;;;;;;;17.65;5.88;;;7.20;99.90;;;;;;5131564;27;20123;-70
2022/01/18 13:35:25;;;;;;;17.58;5.40;;;7.20;99.90;;;;;;5131421;27;20627;-70
2022/01/18 13:37:55;;;;;;;17.58;5.43;;;7.20;99.90;;;;;;5114888;27;20047;-70
2022/01/18 13:40:21;;;;;;;15.13;5.70;;;7.30;99.90;;;;;;5115020;27;20051;-70
2022/01/18 13:42:50;;;;;;;14.30;5.00;;;7.10;99.90;;;;;;5110902;28;20044;-70
2022/01/18 13:45:23;;;;;;;14.00;4.65;;;7.00;99.90;;;;;;5093988;28;20043;-70
2022/01/18 13:47:53;;;;;;;14.55;4.95;;;7.30;99.90;;;;;;5102918;27;20387;-72
2022/01/18 13:50:46;;;;;;;14.63;4.60;;;7.20;99.90;;;;;;5117514;27;20039;-71
2022/01/18 13:53:20;;;;;;;14.95;5.07;;;7.30;99.90;;;;;;5110720;28;20050;-72
2022/01/18 13:56:08;;;;;;;16.65;5.40;;;7.30;99.90;;;;;;5110698;28;20047;-71
2022/01/18 13:58:40;;;;;;;22.17;6.03;;;7.00;99.90;;;;;;5111094;28;20460;-72
2022/01/18 14:01:21;;;;;;;21.45;5.50;;;6.90;99.90;;;;;;5111262;28;20066;-72
2022/01/18 14:03:52;;;;;;;12.02;5.50;;;6.80;99.90;;;;;;5130890;27;20047;-72
2022/01/18 14:06:19;;;;;;;18.23;5.72;;;7.40;99.90;;;;;;5131545;27;20521;-70
2022/01/18 14:08:52;;;;;;;19.30;5.78;;;7.40;99.90;;;;;;5131094;27;20090;-72
2022/01/18 14:11:20;;;;;;;16.20;5.88;;;6.90;99.90;;;;;;5131007;27;20082;-72
2022/01/18 14:13:47;;;;;;;16.52;5.80;;;6.80;99.90;;;;;;5113908;27;20502;-72
2022/01/18 14:16:26;;;;;;;19.50;6.07;;;6.90;99.90;;;;;;5130936;27;20050;-70
2022/01/18 14:19:03;;;;;;;20.45;5.97;;;6.70;99.90;;;;;;5108772;28;20038;-70
2022/01/18 14:21:37;;;;;;;17.50;5.60;;;7.00;99.90;;;;;;5093521;28;20123;-69
2022/01/18 14:24:22;;;;;;;16.55;5.13;;;7.10;99.90;;;;;;5110393;28;20048;-70
2022/01/18 14:26:54;;;;;;;18.42;5.47;;;6.80;99.90;;;;;;5110621;28;20067;-70
2022/01/18 14:29:20;;;;;;;19.42;5.40;;;;;;;;;;5110652;28;20047;-70
2022/01/18 14:32:21;;;;;;;16.70;5.47;;;6.90;99.90;;;;;;5110204;28;20504;-70
2022/01/18 14:34:56;;;;;;;18.73;5.80;;;6.90;99.90;;;;;;5096199;28;20400;-70
2022/01/18 14:37:37;;;;;;;21.02;6.20;;;6.70;99.90;;;;;;5110162;28;20086;-70
2022/01/18 14:40:28;;;;;;;17.30;5.88;;;6.60;99.90;;;;;;5109966;28;20118;-70
2022/01/18 14:42:59;;;;;;;17.42;6.13;;;6.80;99.90;;;;;;5109930;28;20036;-70
2022/01/18 14:48:08;;;;;;;16.63;6.22;;;6.50;99.90;;;;;;5110468;28;20482;-72